Time;durP1;ratioP1;P1;durP2;ratioP2;P2;SDS_P1;SDS_P2;PMS_P1;PMS_P2;Temp;Humidity;BMP_temperature;BMP_pressure;BME280_temperature;BME280_humidity;BME280_pressure;Samples;Min_cycle;Max_cycle;Signal;HPM_P1;HPM_P2
2021/12/23 00:02:21;;;;;;;35.90;18.47;;;;;;;-6.13;100.00;95586.06;4999802;28;20191;-67
2021/12/23 00:04:47;;;;;;;33.87;16.67;;;;;;;-6.17;100.00;95587.69;4999577;28;20221;-67
2021/12/23 00:07:12;;;;;;;28.30;16.70;;;;;;;-6.20;100.00;95575.78;4999276;28;20175;-67
2021/12/23 00:12:21;;;;;;;32.13;17.60;;;;;;;-6.28;100.00;95573.81;5017189;28;20249;-67
2021/12/23 00:14:49;;;;;;;29.57;16.97;;;;;;;-6.35;100.00;95568.09;4999784;28;20184;-66
2021/12/23 00:17:59;;;;;;;29.47;16.60;;;;;;;-6.42;100.00;95561.63;4999918;28;20255;-68
2021/12/23 00:25:15;;;;;;;28.73;15.43;;;;;;;-6.51;100.00;95568.66;5016924;28;20178;-68
2021/12/23 00:27:41;;;;;;;23.83;15.30;;;;;;;-6.50;100.00;95572.88;4999635;28;20187;-69
2021/12/23 00:30:08;;;;;;;34.27;17.27;;;;;;;-6.50;100.00;95565.72;4999262;28;20187;-68
2021/12/23 00:32:33;;;;;;;25.93;16.30;;;;;;;-6.48;100.00;95570.75;4999173;28;20210;-68
2021/12/23 00:34:58;;;;;;;28.77;15.23;;;;;;;-6.52;100.00;95565.22;5015767;28;20190;-68
2021/12/23 00:37:24;;;;;;;28.43;15.97;;;;;;;-6.57;100.00;95562.66;4998266;28;20212;-69
2021/12/23 00:39:49;;;;;;;28.93;15.53;;;;;;;-6.56;100.00;95566.88;4999276;28;20261;-68
2021/12/23 00:42:14;;;;;;;27.83;15.57;;;;;;;-6.58;100.00;95562.94;4999257;28;20184;-68
2021/12/23 00:44:40;;;;;;;26.17;14.53;;;;;;;-6.62;100.00;95560.09;4998976;28;20254;-68
2021/12/23 00:47:06;;;;;;;26.07;15.07;;;;;;;-6.64;100.00;95564.13;4999267;28;20197;-68
2021/12/23 00:49:32;;;;;;;26.37;14.80;;;;;;;-6.69;100.00;95567.63;5015088;28;20648;-73
2021/12/23 00:51:58;;;;;;;26.20;14.70;;;;;;;-6.72;100.00;95557.59;5015212;28;20187;-81
2021/12/23 00:54:23;;;;;;;26.97;15.07;;;;;;;-6.74;100.00;95548.34;4999004;28;20238;-66
2021/12/23 00:56:50;;;;;;;25.50;14.53;;;;;;;-6.75;100.00;95555.53;4998795;28;20203;-65
2021/12/23 00:59:16;;;;;;;26.47;13.47;;;;;;;-6.78;100.00;95548.13;4999017;28;20187;-65
2021/12/23 01:01:42;;;;;;;25.10;14.03;;;;;;;-6.80;100.00;95550.31;4999045;28;20578;-67
2021/12/23 01:04:07;;;;;;;28.87;13.93;;;;;;;-6.82;100.00;95547.16;4998363;28;20599;-66
2021/12/23 01:06:33;;;;;;;26.20;15.13;;;;;;;-6.83;100.00;95542.91;4998302;28;20222;-66
2021/12/23 01:08:58;;;;;;;24.90;14.13;;;;;;;-6.84;100.00;95537.91;4998335;28;20187;-67
2021/12/23 01:11:24;;;;;;;24.13;14.10;;;;;;;-6.88;100.00;95527.09;4998513;28;20371;-64
2021/12/23 01:14:02;;;;;;;23.20;13.33;;;;;;;-6.91;100.00;95526.88;4998275;28;20663;-63
2021/12/23 01:16:49;;;;;;;23.80;13.03;;;;;;;-6.94;100.00;95527.44;4998616;28;20247;-62
2021/12/23 01:19:16;;;;;;;28.27;13.10;;;;;;;-6.89;100.00;95527.38;5015338;28;20541;-62
2021/12/23 01:21:42;;;;;;;20.80;12.57;;;;;;;-6.86;100.00;95534.78;4998215;28;20195;-63
2021/12/23 01:24:09;;;;;;;24.50;13.50;;;;;;;-6.83;100.00;95540.28;4998068;28;20195;-63
2021/12/23 01:26:35;;;;;;;23.23;13.43;;;;;;;-6.78;100.00;95540.16;4997954;28;20191;-63
2021/12/23 01:29:01;;;;;;;23.00;12.83;;;;;;;-6.72;100.00;95536.38;4998380;28;20644;-68
2021/12/23 01:31:28;;;;;;;25.17;12.90;;;;;;;-6.65;100.00;95541.28;4997959;28;20270;-81
2021/12/23 01:33:54;;;;;;;20.50;12.53;;;;;;;-6.64;100.00;95543.66;5014416;28;20290;-81
2021/12/23 01:36:19;;;;;;;22.53;12.07;;;;;;;-6.62;100.00;95541.50;4998364;28;20254;-81
2021/12/23 01:38:45;;;;;;;23.87;12.80;;;;;;;-6.61;100.00;95553.69;4998082;28;20196;-81
2021/12/23 01:41:11;;;;;;;24.03;12.47;;;;;;;-6.61;100.00;95548.38;4997954;28;20187;-81
2021/12/23 01:43:37;;;;;;;25.83;12.83;;;;;;;-6.59;100.00;95543.59;5014206;28;20191;-80
2021/12/23 01:46:04;;;;;;;23.90;12.83;;;;;;;-6.59;100.00;95546.25;4997986;28;20193;-74
2021/12/23 01:48:30;;;;;;;20.63;12.10;;;;;;;-6.56;100.00;95545.63;4997524;28;20206;-73
2021/12/23 01:50:55;;;;;;;20.73;12.27;;;;;;;-6.54;100.00;95542.69;4997586;28;20287;-73
2021/12/23 01:53:21;;;;;;;24.67;12.73;;;;;;;-6.48;100.00;95542.34;4997727;28;20237;-73
2021/12/23 01:55:46;;;;;;;22.93;12.03;;;;;;;-6.43;100.00;95534.25;4997783;28;20191;-73
2021/12/23 01:58:13;;;;;;;18.67;11.70;;;;;;;-6.40;100.00;95533.69;4997612;28;20703;-73
2021/12/23 02:00:43;;;;;;;20.13;11.37;;;;;;;-6.27;100.00;95542.75;5014266;28;20198;-73
2021/12/23 02:03:09;;;;;;;17.53;10.80;;;;;;;-6.21;100.00;95536.25;4997475;28;20190;-63
2021/12/23 02:05:34;;;;;;;21.63;12.13;;;;;;;-6.16;100.00;95533.50;4997504;28;20195;-79
2021/12/23 02:08:00;;;;;;;17.90;11.07;;;;;;;-6.11;100.00;95531.53;4998110;28;20256;-63
2021/12/23 02:10:26;;;;;;;18.50;10.73;;;;;;;-6.06;100.00;95523.47;5014042;28;20179;-63
2021/12/23 02:12:52;;;;;;;16.33;10.53;;;;;;;-6.02;100.00;95526.34;4997525;28;20214;-63
2021/12/23 02:15:19;;;;;;;20.60;10.90;;;;;;;-5.96;100.00;95522.47;5013594;28;20303;-63
2021/12/23 02:17:46;;;;;;;21.07;11.63;;;;;;;-5.95;100.00;95518.72;5014232;28;20203;-63
2021/12/23 02:20:14;;;;;;;18.43;11.47;;;;;;;-5.98;100.00;95514.81;4997508;28;20199;-63
2021/12/23 02:22:42;;;;;;;21.30;11.83;;;;;;;-5.95;100.00;95503.59;5013583;28;20199;-66
2021/12/23 02:25:09;;;;;;;20.73;11.83;;;;;;;-5.96;100.00;95496.72;4997704;28;20191;-79
2021/12/23 02:27:34;;;;;;;22.00;11.00;;;;;;;-5.96;100.00;95502.03;4996967;28;20195;-79
2021/12/23 02:30:01;;;;;;;20.07;11.13;;;;;;;-6.00;100.00;95490.41;4997219;28;20195;-79
2021/12/23 02:32:27;;;;;;;20.80;11.30;;;;;;;-6.04;100.00;95494.75;4997137;28;20214;-79
2021/12/23 02:34:53;;;;;;;17.97;10.43;;;;;;;-6.08;100.00;95472.50;4997321;28;20194;-79
2021/12/23 02:37:18;;;;;;;18.37;10.43;;;;;;;-6.12;100.00;95487.44;4997516;28;20289;-79
2021/12/23 02:39:43;;;;;;;17.63;10.90;;;;;;;-6.18;100.00;95478.03;4996931;28;20239;-80
2021/12/23 02:42:09;;;;;;;20.50;10.80;;;;;;;-6.24;100.00;95479.19;4997613;28;20195;-65
2021/12/23 02:44:35;;;;;;;19.00;10.57;;;;;;;-6.29;100.00;95471.34;4997081;28;20191;-68
2021/12/23 02:47:00;;;;;;;16.90;10.23;;;;;;;-6.34;100.00;95463.44;4996867;28;20561;-67
2021/12/23 02:49:26;;;;;;;18.97;11.03;;;;;;;-6.38;100.00;95456.41;4997113;28;20184;-68
2021/12/23 02:51:52;;;;;;;19.53;10.87;;;;;;;-6.43;100.00;95459.94;4996931;28;20187;-68
2021/12/23 02:54:17;;;;;;;17.37;10.53;;;;;;;-6.44;100.00;95446.94;4996931;28;20532;-68
2021/12/23 02:56:43;;;;;;;16.43;10.13;;;;;;;-6.46;100.00;95455.19;4997443;28;20222;-68
2021/12/23 02:59:08;;;;;;;16.77;10.37;;;;;;;-6.46;100.00;95455.19;4997394;28;20586;-66
2021/12/23 03:01:34;;;;;;;19.40;10.40;;;;;;;-6.46;100.00;95449.88;4999985;28;20218;-64
2021/12/23 03:03:59;;;;;;;16.80;10.60;;;;;;;-6.46;100.00;95449.09;5000856;28;20183;-63
2021/12/23 03:06:25;;;;;;;15.93;10.03;;;;;;;-6.47;100.00;95458.94;5000608;28;20229;-65
2021/12/23 03:08:56;;;;;;;19.60;10.57;;;;;;;-6.46;100.00;95455.19;5000685;28;20214;-64
2021/12/23 03:11:24;;;;;;;19.43;11.07;;;;;;;-6.44;100.00;95463.66;5017170;28;20186;-63
2021/12/23 03:13:50;;;;;;;18.03;9.73;;;;;;;-6.38;100.00;95461.69;5016767;28;20640;-63
2021/12/23 03:16:20;;;;;;;18.67;10.53;;;;;;;-6.36;100.00;95465.63;5017111;28;20199;-63
2021/12/23 03:18:46;;;;;;;22.53;10.57;;;;;;;-6.35;100.00;95477.06;5017031;28;20308;-81
2021/12/23 03:21:11;;;;;;;15.70;9.63;;;;;;;-6.35;100.00;95467.19;5000396;28;20652;-67
2021/12/23 03:23:37;;;;;;;19.83;11.03;;;;;;;-6.34;100.00;95466.09;5000503;28;20191;-66
2021/12/23 03:26:04;;;;;;;19.10;11.23;;;;;;;-6.30;100.00;95455.69;5016610;28;20191;-66
2021/12/23 03:28:29;;;;;;;17.27;10.33;;;;;;;-6.26;100.00;95452.16;5017640;28;20191;-67
2021/12/23 03:30:55;;;;;;;18.07;11.20;;;;;;;-6.22;100.00;95450.50;5000093;28;20195;-66
2021/12/23 03:33:20;;;;;;;17.87;10.40;;;;;;;-6.18;100.00;95451.47;5016885;28;20211;-66
2021/12/23 03:35:46;;;;;;;19.23;10.80;;;;;;;-6.08;100.00;95443.28;4999954;28;20183;-68
2021/12/23 03:38:13;;;;;;;15.50;10.17;;;;;;;-6.02;100.00;95438.66;5000509;28;20246;-69
2021/12/23 03:40:39;;;;;;;18.53;10.93;;;;;;;-5.99;100.00;95436.19;5000069;28;20278;-69
2021/12/23 03:43:05;;;;;;;17.50;10.07;;;;;;;-6.01;100.00;95430.38;5016650;28;20223;-70
2021/12/23 03:45:30;;;;;;;21.13;11.20;;;;;;;-6.05;100.00;95426.75;4999908;28;20214;-68
2021/12/23 03:47:56;;;;;;;17.63;10.67;;;;;;;-6.07;100.00;95426.25;4999828;28;20207;-69
2021/12/23 03:50:23;;;;;;;23.33;11.73;;;;;;;-6.09;100.00;95417.03;4999828;28;20185;-69
2021/12/23 03:52:49;;;;;;;19.60;11.10;;;;;;;-6.12;100.00;95418.38;4999846;28;20630;-69
2021/12/23 03:55:17;;;;;;;17.47;10.70;;;;;;;-6.14;100.00;95415.25;4999573;28;20368;-74
2021/12/23 03:57:43;;;;;;;20.30;11.53;;;;;;;-6.19;100.00;95410.06;5016480;28;20208;-69
2021/12/23 04:00:12;;;;;;;18.23;10.00;;;;;;;-6.23;100.00;95419.69;5016162;28;20198;-69
2021/12/23 04:02:37;;;;;;;16.60;10.33;;;;;;;-6.24;100.00;95399.53;5015919;28;20598;-68
2021/12/23 04:05:06;;;;;;;19.57;11.10;;;;;;;-6.26;100.00;95412.31;5016144;28;20277;-69
2021/12/23 04:07:32;;;;;;;19.57;10.43;;;;;;;-6.23;100.00;95405.63;5016348;28;20195;-68
2021/12/23 04:09:58;;;;;;;20.03;11.33;;;;;;;-6.31;100.00;95401.78;4999818;28;20191;-69
2021/12/23 04:12:23;;;;;;;16.77;10.93;;;;;;;-6.38;100.00;95393.44;5014786;28;20226;-66
2021/12/23 04:14:48;;;;;;;18.47;10.60;;;;;;;-6.42;100.00;95397.78;4999544;28;20540;-63
2021/12/23 04:17:14;;;;;;;19.63;10.33;;;;;;;-6.42;100.00;95404.97;4999417;28;20261;-66
2021/12/23 04:19:39;;;;;;;18.27;10.60;;;;;;;-6.47;100.00;95405.06;4999173;28;20184;-66
2021/12/23 04:22:05;;;;;;;19.07;10.47;;;;;;;-6.50;100.00;95401.13;4999332;28;20195;-68
2021/12/23 04:24:30;;;;;;;15.83;9.97;;;;;;;-6.51;100.00;95399.56;4999264;28;20767;-66
2021/12/23 04:26:56;;;;;;;18.20;10.70;;;;;;;-6.57;100.00;95392.78;4999816;28;20517;-66
2021/12/23 04:29:23;;;;;;;17.03;9.73;;;;;;;-6.62;100.00;95387.56;4999312;28;20651;-66
2021/12/23 04:31:48;;;;;;;18.10;10.40;;;;;;;-6.64;100.00;95384.41;5015879;28;20187;-66
2021/12/23 04:34:13;;;;;;;19.57;11.37;;;;;;;-6.64;100.00;95379.09;4999171;28;20203;-68
2021/12/23 04:36:39;;;;;;;22.03;12.10;;;;;;;-6.65;100.00;95366.94;4998877;28;20271;-68
2021/12/23 04:39:04;;;;;;;21.67;11.87;;;;;;;-6.69;100.00;95365.16;4999696;28;20205;-68
2021/12/23 04:41:31;;;;;;;18.50;10.63;;;;;;;-6.72;100.00;95361.22;4999059;28;20179;-68
2021/12/23 04:43:57;;;;;;;18.90;10.70;;;;;;;-6.73;100.00;95353.56;4999194;28;20212;-68
2021/12/23 04:46:23;;;;;;;18.57;10.83;;;;;;;-6.75;100.00;95356.50;4998640;28;20547;-68
2021/12/23 04:48:48;;;;;;;19.93;10.70;;;;;;;-6.76;100.00;95352.28;4999736;28;20216;-63
2021/12/23 04:51:14;;;;;;;20.23;11.30;;;;;;;-6.76;100.00;95349.63;4999440;28;20282;-66
2021/12/23 04:53:40;;;;;;;17.37;10.77;;;;;;;-6.78;100.00;95341.16;4998654;28;20191;-69
2021/12/23 04:56:06;;;;;;;17.23;10.97;;;;;;;-6.76;100.00;95336.38;4998794;28;20194;-69
2021/12/23 04:58:31;;;;;;;20.17;11.93;;;;;;;-6.75;100.00;95337.94;4998591;28;20204;-69
2021/12/23 05:00:57;;;;;;;20.60;11.37;;;;;;;-6.76;100.00;95328.41;4998519;28;20180;-69
2021/12/23 05:03:24;;;;;;;18.57;11.17;;;;;;;-6.76;100.00;95323.09;4998392;28;20527;-69
2021/12/23 05:05:50;;;;;;;17.33;10.80;;;;;;;-6.76;100.00;95323.09;4998817;28;20184;-69
2021/12/23 05:08:16;;;;;;;17.37;10.40;;;;;;;-6.75;100.00;95334.50;4998448;28;20194;-70
2021/12/23 05:10:42;;;;;;;21.87;10.90;;;;;;;-6.79;100.00;95323.69;5014720;28;20176;-70
2021/12/23 05:13:08;;;;;;;18.13;10.17;;;;;;;-6.80;100.00;95331.94;4998291;28;20183;-74
2021/12/23 05:15:33;;;;;;;20.27;11.17;;;;;;;-6.80;100.00;95332.72;5014582;28;20593;-73
2021/12/23 05:17:59;;;;;;;18.43;10.63;;;;;;;-6.79;100.00;95339.59;4998300;28;20293;-76
2021/12/23 05:20:25;;;;;;;19.57;10.90;;;;;;;-6.80;100.00;95327.44;4998284;28;20564;-71
2021/12/23 05:22:50;;;;;;;17.97;10.83;;;;;;;-6.84;100.00;95331.75;4998452;28;20526;-66
2021/12/23 05:25:17;;;;;;;21.43;10.97;;;;;;;-6.90;100.00;95338.22;4998406;28;20198;-72
2021/12/23 05:27:42;;;;;;;26.73;12.07;;;;;;;-6.93;100.00;95346.78;5014897;28;20204;-72
2021/12/23 05:30:11;;;;;;;18.73;10.50;;;;;;;-6.98;100.00;95346.88;5014818;28;20178;-67
2021/12/23 05:32:37;;;;;;;19.50;11.37;;;;;;;-7.01;100.00;95344.81;4997843;28;20210;-67
2021/12/23 05:35:03;;;;;;;22.33;11.17;;;;;;;-7.04;100.00;95345.41;4997849;28;20183;-65
2021/12/23 05:37:28;;;;;;;17.87;11.13;;;;;;;-7.06;100.00;95345.69;5014060;28;20203;-66
2021/12/23 05:39:53;;;;;;;22.40;11.10;;;;;;;-7.02;100.00;95351.19;4997876;28;20235;-66
2021/12/23 05:42:19;;;;;;;21.03;11.50;;;;;;;-7.02;100.00;95353.84;4998305;28;20281;-67
2021/12/23 05:44:44;;;;;;;23.43;12.33;;;;;;;-7.01;100.00;95344.81;4997808;28;20286;-64
2021/12/23 05:47:10;;;;;;;21.00;10.30;;;;;;;-7.06;100.00;95343.03;5014104;28;20187;-64
2021/12/23 05:49:35;;;;;;;23.77;11.93;;;;;;;-7.06;100.00;95339.63;4998243;28;20197;-67
2021/12/23 05:52:00;;;;;;;18.50;11.50;;;;;;;-7.07;100.00;95339.91;4997985;28;20187;-68
2021/12/23 05:54:26;;;;;;;23.03;11.67;;;;;;;-7.09;100.00;95337.53;4998350;28;20222;-68
2021/12/23 05:56:51;;;;;;;21.50;11.60;;;;;;;-7.08;100.00;95349.72;4997547;28;20207;-69
2021/12/23 05:59:17;;;;;;;20.77;10.83;;;;;;;-7.06;100.00;95339.63;4997426;28;20194;-69
2021/12/23 06:01:42;;;;;;;20.13;10.43;;;;;;;-7.12;100.00;95335.47;4997384;28;20198;-69
2021/12/23 06:04:08;;;;;;;17.17;9.90;;;;;;;-7.13;100.00;95333.91;4997835;28;20196;-67
2021/12/23 06:06:33;;;;;;;16.07;9.83;;;;;;;-7.14;100.00;95332.34;4997430;28;20197;-65
2021/12/23 06:08:59;;;;;;;18.20;10.03;;;;;;;-7.19;100.00;95324.47;4997455;28;20206;-64
2021/12/23 06:11:24;;;;;;;20.33;11.30;;;;;;;-7.24;100.00;95317.38;4997922;28;20188;-64
2021/12/23 06:13:49;;;;;;;17.07;9.97;;;;;;;-7.22;100.00;95319.75;4997786;28;20187;-64
2021/12/23 06:16:15;;;;;;;17.20;10.77;;;;;;;-7.20;100.00;95318.41;4997076;28;20211;-64
2021/12/23 06:18:40;;;;;;;19.83;12.13;;;;;;;-7.16;100.00;95323.88;4997550;28;20211;-64
2021/12/23 06:21:05;;;;;;;17.83;11.30;;;;;;;-7.16;100.00;95324.69;4997551;28;20577;-63
2021/12/23 06:23:31;;;;;;;15.97;10.13;;;;;;;-7.21;100.00;95329.28;4997897;28;20187;-66
2021/12/23 06:25:57;;;;;;;19.97;11.03;;;;;;;-7.23;100.00;95339.38;4997064;28;20188;-68
2021/12/23 06:28:22;;;;;;;18.77;10.27;;;;;;;-7.24;100.00;95343.13;5014325;28;20191;-65
2021/12/23 06:30:48;;;;;;;22.30;12.53;;;;;;;-7.20;100.00;95341.47;4997158;28;20191;-64
2021/12/23 06:33:13;;;;;;;17.07;10.87;;;;;;;-7.16;100.00;95345.09;4997232;28;20242;-64
2021/12/23 06:35:39;;;;;;;19.80;10.50;;;;;;;-7.13;100.00;95344.53;4998970;28;20274;-66
2021/12/23 06:38:07;;;;;;;18.17;10.20;;;;;;;-7.15;100.00;95346.66;5001109;28;20237;-66
2021/12/23 06:40:33;;;;;;;20.60;10.80;;;;;;;-7.08;100.00;95344.41;5017402;28;20191;-65
2021/12/23 06:42:59;;;;;;;19.60;11.13;;;;;;;-7.02;100.00;95340.59;5017493;28;20187;-69
2021/12/23 06:45:24;;;;;;;18.13;11.53;;;;;;;-6.96;100.00;95344.69;5000939;28;20199;-70
2021/12/23 06:47:50;;;;;;;19.87;10.77;;;;;;;-6.92;100.00;95343.06;5000950;28;20188;-71
2021/12/23 06:50:17;;;;;;;17.87;11.03;;;;;;;-6.88;100.00;95357.31;5000853;28;20187;-71
2021/12/23 06:52:43;;;;;;;22.00;11.80;;;;;;;-6.87;100.00;95337.66;5017334;28;20257;-71
2021/12/23 06:55:11;;;;;;;17.57;10.73;;;;;;;-6.91;100.00;95347.28;5000779;28;20654;-71
2021/12/23 06:57:37;;;;;;;22.03;11.53;;;;;;;-6.95;100.00;95356.09;5017501;28;20211;-70
2021/12/23 07:00:08;;;;;;;19.60;11.53;;;;;;;-6.95;100.00;95354.25;5017059;28;20207;-68
2021/12/23 07:02:38;;;;;;;19.67;10.97;;;;;;;-6.93;100.00;95338.81;5000946;28;20263;-65
2021/12/23 07:05:04;;;;;;;21.20;11.17;;;;;;;-6.90;100.00;95332.13;5000650;28;20184;-65
2021/12/23 07:07:39;;;;;;;21.70;11.30;;;;;;;-6.88;100.00;95330.78;5000704;28;20194;-66
2021/12/23 07:10:05;;;;;;;17.27;10.33;;;;;;;-6.80;100.00;95327.44;5001288;28;20244;-65
2021/12/23 07:12:31;;;;;;;22.53;11.50;;;;;;;-6.75;100.00;95329.97;5016895;28;20280;-66
2021/12/23 07:14:56;;;;;;;22.57;11.47;;;;;;;-6.71;100.00;95328.28;5001119;28;20226;-65
2021/12/23 07:17:21;;;;;;;20.10;11.33;;;;;;;-6.64;100.00;95330.56;5000347;28;20220;-67
2021/12/23 07:19:47;;;;;;;27.43;14.10;;;;;;;-6.56;100.00;95337.81;5000491;28;20195;-64
2021/12/23 07:22:12;;;;;;;19.93;11.07;;;;;;;-6.43;100.00;95324.53;5000193;28;20206;-65
2021/12/23 07:24:39;;;;;;;20.13;11.23;;;;;;;-6.18;100.00;95339.91;5000785;28;20223;-64
2021/12/23 07:27:05;;;;;;;23.33;11.40;;;;;;;-5.72;100.00;95342.28;5000947;28;20204;-63
2021/12/23 07:29:30;;;;;;;20.77;11.63;;;;;;;-5.46;100.00;95341.34;5000753;28;20186;-65
2021/12/23 07:31:55;;;;;;;20.73;10.77;;;;;;;-5.13;100.00;95361.28;5000219;28;20187;-64
2021/12/23 07:34:21;;;;;;;18.83;10.27;;;;;;;-4.82;100.00;95346.06;5000186;28;20254;-64
2021/12/23 07:36:46;;;;;;;20.57;11.27;;;;;;;-4.58;100.00;95357.13;4999955;28;20230;-70
2021/12/23 07:39:12;;;;;;;19.63;11.47;;;;;;;-4.28;100.00;95355.47;5000204;28;20202;-64
2021/12/23 07:41:37;;;;;;;19.77;11.07;;;;;;;-3.91;100.00;95358.34;5000105;28;20202;-65
2021/12/23 07:44:05;;;;;;;20.33;11.03;;;;;;;-3.92;100.00;95362.09;4999762;28;20183;-63
2021/12/23 07:46:34;;;;;;;20.90;11.60;;;;;;;-4.05;100.00;95357.69;5016096;28;20167;-64
2021/12/23 07:49:00;;;;;;;17.30;10.50;;;;;;;-3.97;100.00;95366.81;5016340;28;20187;-62
2021/12/23 07:51:26;;;;;;;15.57;10.50;;;;;;;-3.40;100.00;95375.44;5016014;28;20194;-66
2021/12/23 07:53:53;;;;;;;18.33;11.07;;;;;;;-2.79;100.00;95386.47;5016773;28;20183;-74
2021/12/23 07:56:19;;;;;;;19.60;11.63;;;;;;;-1.99;100.00;95378.25;4999965;28;20298;-65
2021/12/23 07:58:45;;;;;;;22.13;11.80;;;;;;;-1.77;100.00;95375.25;4999561;28;20195;-65
2021/12/23 08:01:10;;;;;;;19.47;11.93;;;;;;;-1.45;100.00;95368.41;4999650;28;20194;-66
2021/12/23 08:03:36;;;;;;;19.67;12.33;;;;;;;-1.36;100.00;95375.25;4999987;28;20271;-66
2021/12/23 08:06:01;;;;;;;18.97;12.13;;;;;;;-1.30;100.00;95363.25;4999663;28;20557;-66
2021/12/23 08:08:26;;;;;;;22.27;13.00;;;;;;;-1.37;100.00;95356.84;4999619;28;20192;-67
2021/12/23 08:10:52;;;;;;;21.00;12.37;;;;;;;-1.04;100.00;95365.66;4999317;28;20192;-67
2021/12/23 08:13:17;;;;;;;19.10;12.13;;;;;;;-0.89;100.00;95365.81;4999505;28;20234;-66
2021/12/23 08:15:43;;;;;;;18.50;11.53;;;;;;;-0.73;100.00;95357.94;5015642;28;20173;-65
2021/12/23 08:18:09;;;;;;;17.87;11.47;;;;;;;-0.81;100.00;95361.47;4999632;28;20252;-64
2021/12/23 08:20:34;;;;;;;18.07;11.37;;;;;;;-0.94;100.00;95357.22;5016003;28;20183;-65
2021/12/23 08:23:00;;;;;;;21.27;11.43;;;;;;;-1.32;100.00;95348.59;4999388;28;20192;-66
2021/12/23 08:25:26;;;;;;;20.90;13.13;;;;;;;-1.50;100.00;95345.28;4999100;28;20197;-65
2021/12/23 08:27:53;;;;;;;19.20;12.70;;;;;;;-1.54;100.00;95346.25;5015515;28;20323;-64
2021/12/23 08:30:20;;;;;;;16.67;11.70;;;;;;;-1.55;100.00;95344.69;4999044;28;20200;-65
2021/12/23 08:32:47;;;;;;;19.63;11.63;;;;;;;-1.60;100.00;95347.59;4999187;28;20551;-65
2021/12/23 08:35:14;;;;;;;16.17;10.83;;;;;;;-1.72;100.00;95340.28;5015402;28;20262;-61
2021/12/23 08:37:44;;;;;;;21.53;11.63;;;;;;;-1.90;100.00;95333.47;5015418;28;20227;-62
2021/12/23 08:40:10;;;;;;;18.50;12.03;;;;;;;-1.76;100.00;95334.00;4998731;28;20196;-61
2021/12/23 08:42:35;;;;;;;20.43;12.17;;;;;;;-1.68;100.00;95324.38;5015084;28;20253;-62
2021/12/23 08:45:04;;;;;;;19.10;12.07;;;;;;;-1.67;100.00;95326.69;5015225;28;20207;-62
2021/12/23 08:47:30;;;;;;;18.70;12.03;;;;;;;-1.65;100.00;95337.06;4998530;28;20192;-60
2021/12/23 08:49:56;;;;;;;23.53;12.87;;;;;;;-1.69;100.00;95338.81;4999084;28;20192;-63
2021/12/23 08:52:21;;;;;;;16.83;10.93;;;;;;;-1.74;100.00;95331.81;4998887;28;20250;-65
2021/12/23 08:54:47;;;;;;;18.73;11.40;;;;;;;-1.78;100.00;95336.22;4998568;28;20605;-64
2021/12/23 08:57:12;;;;;;;21.33;12.47;;;;;;;-1.90;100.00;95327.38;4998166;28;20211;-64
2021/12/23 08:59:38;;;;;;;20.93;12.50;;;;;;;-1.92;100.00;95321.53;4997936;28;20183;-63
2021/12/23 09:02:03;;;;;;;22.13;12.67;;;;;;;-2.03;100.00;95323.03;4998611;28;20267;-63
2021/12/23 09:04:29;;;;;;;20.53;12.03;;;;;;;-1.97;100.00;95316.41;4998572;28;20183;-64
2021/12/23 09:06:54;;;;;;;20.67;12.60;;;;;;;-1.68;100.00;95308.31;4998207;28;20183;-61
2021/12/23 09:09:20;;;;;;;24.03;14.63;;;;;;;-1.35;100.00;95311.78;4998573;28;20203;-61
2021/12/23 09:11:52;;;;;;;18.93;12.43;;;;;;;-1.21;100.00;95320.28;5015482;28;20171;-66
2021/12/23 09:14:18;;;;;;;18.87;11.67;;;;;;;-1.22;100.00;95321.41;4998189;28;20213;-63
2021/12/23 09:16:43;;;;;;;17.77;11.97;;;;;;;-1.28;100.00;95312.03;4998069;28;20203;-62
2021/12/23 09:19:09;;;;;;;18.23;11.87;;;;;;;-1.45;100.00;95317.53;4998017;28;20203;-62
2021/12/23 09:21:36;;;;;;;19.43;12.27;;;;;;;-1.30;100.00;95304.31;4998416;28;20268;-62
2021/12/23 09:24:03;;;;;;;19.20;11.67;;;;;;;-1.37;100.00;95297.94;4998253;28;20195;-63
2021/12/23 09:26:32;;;;;;;18.00;11.03;;;;;;;-1.08;100.00;95292.44;4998086;28;20229;-62
2021/12/23 09:29:11;;;;;;;16.00;10.07;;;;;;;-1.37;100.00;95289.91;4997904;28;20188;-62
2021/12/23 09:34:20;;;;;;;16.53;9.93;;;;;;;-1.25;100.00;95300.63;5015076;28;20265;-62
2021/12/23 09:36:46;;;;;;;17.43;10.23;;;;;;;-1.39;100.00;95294.78;4997748;28;20215;-62
2021/12/23 09:39:12;;;;;;;16.97;9.87;;;;;;;-1.43;100.00;95299.25;4998432;28;20187;-63
2021/12/23 09:41:40;;;;;;;17.47;10.10;;;;;;;-1.42;100.00;95300.81;5014576;28;20183;-62
2021/12/23 09:44:08;;;;;;;18.90;10.33;;;;;;;-1.39;100.00;95289.44;5013928;28;20238;-61
2021/12/23 09:46:34;;;;;;;16.30;10.33;;;;;;;-1.30;100.00;95282.91;4997541;28;20183;-63
2021/12/23 09:49:01;;;;;;;19.47;11.23;;;;;;;-1.16;100.00;95278.00;4997640;28;20187;-61
2021/12/23 09:51:29;;;;;;;16.63;10.33;;;;;;;-0.92;100.00;95274.59;5014125;28;20278;-61
2021/12/23 09:53:58;;;;;;;15.57;10.83;;;;;;;-0.48;100.00;95276.41;5013820;28;20183;-61
2021/12/23 09:56:28;;;;;;;21.83;11.67;;;;;;;-0.10;100.00;95282.19;5013629;28;20265;-61
2021/12/23 09:58:56;;;;;;;18.50;10.53;;;;;;;0.18;100.00;95272.25;5014859;28;20539;-62
2021/12/23 10:01:22;;;;;;;15.97;10.20;;;;;;;0.31;100.00;95271.09;4997581;28;20274;-61
2021/12/23 10:03:47;;;;;;;18.33;11.70;;;;;;;0.35;100.00;95261.25;4997559;28;20294;-70
2021/12/23 10:06:13;;;;;;;16.67;10.90;;;;;;;0.51;100.00;95264.75;4997518;28;20614;-62
2021/12/23 10:08:40;;;;;;;20.70;11.10;;;;;;;0.73;100.00;95261.50;4997414;28;20253;-61
2021/12/23 10:38:40;;;;;;;15.83;9.47;;;;;;;1.43;100.00;95220.28;5014607;28;20256;-64
2021/12/23 10:41:24;;;;;;;19.37;9.50;;;;;;;1.55;100.00;95214.00;4997594;28;20628;-61
2021/12/23 10:43:59;;;;;;;15.67;8.90;;;;;;;1.63;100.00;95224.56;4997515;28;20185;-70
2021/12/23 10:46:29;;;;;;;15.37;9.87;;;;;;;1.62;100.00;95214.16;5013493;28;20204;-70
2021/12/23 10:52:02;;;;;;;15.93;8.93;;;;;;;1.82;100.00;95200.38;5014552;28;20197;-70
2021/12/23 11:00:13;;;;;;;13.33;9.23;;;;;;;2.06;100.00;95167.84;5014256;28;20190;-65
2021/12/23 11:02:41;;;;;;;14.83;9.97;;;;;;;2.03;100.00;95167.75;5014199;28;20187;-61
2021/12/23 11:05:21;;;;;;;14.37;10.07;;;;;;;1.74;100.00;95147.56;4997408;28;20179;-61
2021/12/23 11:38:31;;;;;;;18.87;9.73;;;;;;;2.71;100.00;95107.47;5017570;28;20273;-67
2021/12/23 11:41:03;;;;;;;12.87;9.37;;;;;;;2.74;100.00;95106.72;5017113;28;20548;-66
2021/12/23 11:43:47;;;;;;;17.80;8.93;;;;;;;2.73;100.00;95110.56;5016095;28;20182;-66
2021/12/23 11:46:16;;;;;;;16.37;9.37;;;;;;;2.60;100.00;95106.50;5000372;28;20198;-66
2021/12/23 11:48:45;;;;;;;16.00;9.33;;;;;;;2.69;100.00;95098.94;5016405;28;20272;-67
2021/12/23 11:51:16;;;;;;;18.47;9.20;;;;;;;2.75;100.00;95091.34;5016495;28;20195;-66
2021/12/23 11:53:44;;;;;;;15.97;8.10;;;;;;;2.81;100.00;95096.06;4999977;28;20187;-63
2021/12/23 11:56:11;;;;;;;15.93;8.10;;;;;;;2.88;100.00;95096.19;5016372;28;20191;-63
2021/12/23 11:58:45;;;;;;;14.40;7.83;;;;;;;2.94;100.00;95100.13;5016030;28;20191;-63
2021/12/23 12:01:15;;;;;;;17.10;8.60;;;;;;;3.02;100.00;95096.41;5016179;28;20251;-63
2021/12/23 12:04:06;;;;;;;20.00;8.63;;;;;;;3.08;100.00;95100.34;5015728;28;20199;-63
2021/12/23 12:06:42;;;;;;;18.33;8.53;;;;;;;3.19;100.00;95085.09;5000431;28;20286;-62
2021/12/23 12:09:20;;;;;;;12.33;7.63;;;;;;;3.31;100.00;95084.88;4999492;28;20248;-62
2021/12/23 12:11:58;;;;;;;14.03;7.83;;;;;;;3.43;100.00;95078.50;5015679;28;20190;-72
2021/12/23 12:14:39;;;;;;;11.50;7.10;;;;;;;3.49;100.00;95077.81;5015830;28;20230;-63
2021/12/23 12:17:23;;;;;;;9.97;7.13;;;;;;;3.66;100.00;95067.59;5015684;28;20265;-64
2021/12/23 12:20:01;;;;;;;13.23;7.50;;;;;;;3.75;100.00;95068.88;5016277;28;20238;-64
2021/12/23 12:22:45;;;;;;;18.70;8.27;;;;;;;3.82;100.00;95073.59;5015541;28;20183;-64
2021/12/23 12:25:54;;;;;;;11.47;7.13;;;;;;;3.91;100.00;95069.47;5015446;28;20198;-64
2021/12/23 12:28:25;;;;;;;23.50;8.80;;;;;;;3.96;100.00;95062.97;5015886;28;20190;-64
2021/12/23 12:30:57;;;;;;;20.60;8.33;;;;;;;4.02;100.00;95061.47;4999253;28;20187;-63